METAR Data
IDs: Format: Raw Decoded Include TAF

Data at: 0154 UTC 01 Mar 2021

EGPH 010150Z VRB03KT 9999 OVC040 04/03 Q1035
EGPH 010120Z 21004KT 9999 OVC039 04/03 Q1035
EGPH 010050Z 22004KT 9999 OVC040 05/04 Q1035
EGPH 010020Z VRB03KT 9999 OVC040 05/04 Q1035
EGPH 282350Z 25004KT 9999 OVC040 06/04 Q1035
EGPH 282320Z VRB02KT 9999 OVC041 06/04 Q1035
EGPH 282250Z 24002KT 9999 OVC042 07/05 Q1035
EGPH 282220Z VRB01KT 9999 OVC042 06/04 Q1035
EGPH 282150Z 25003KT 9999 OVC043 06/04 Q1035
EGPH 282120Z VRB03KT 9999 OVC044 07/05 Q1035
EGPH 282050Z 22004KT 9999 OVC044 07/05 Q1035
EGPH 282020Z 22003KT 9999 OVC043 07/05 Q1035
EGPH 281950Z VRB03KT 9999 OVC045 07/05 Q1035
EGPH 281920Z 25004KT 9999 OVC045 07/05 Q1035
EGPH 281850Z 23003KT 9999 OVC046 07/05 Q1035
EGPH 281820Z 23003KT 9999 OVC044 08/05 Q1035
EGPH 281750Z 25004KT 9999 BKN043 08/05 Q1035
EGPH 281720Z 24004KT 9999 BKN049 08/05 Q1035
EGPH 281650Z 27004KT 240V320 CAVOK 09/05 Q1036
EGPH 281620Z 29005KT 260V330 9999 FEW024 BKN041 10/05 Q1036
EGPH 281550Z 27004KT 240V320 9999 FEW025 SCT038 10/05 Q1036
EGPH 281520Z 27005KT 240V300 9999 FEW023 10/05 Q1036
EGPH 281450Z 27006KT 9999 SCT023 10/05 Q1036
EGPH 281420Z 27006KT 9999 SCT021 OVC049 10/05 Q1036
EGPH 281350Z 26005KT 220V300 9999 SCT021 BKN034 10/06 Q1036
EGPH 281320Z 26005KT 240V330 9999 FEW022 BKN030 OVC046 10/06 Q1037
EGPH 281250Z 25007KT 9999 OVC023 10/05 Q1037
EGPH 281220Z 27007KT 230V300 9999 BKN020 10/05 Q1037
EGPH 281120Z 24008KT 9999 SCT018 BKN044 10/06 Q1038
EGPH 281050Z 25008KT 9999 SCT018 BKN042 09/05 Q1038
EGPH 281020Z 26005KT 230V300 9999 FEW018 OVC039 09/05 Q1038
EGPH 280950Z 25005KT 220V280 9999 SCT022 OVC030 09/06 Q1038
EGPH 280920Z 25005KT 9999 BKN021 OVC041 08/06 Q1038
EGPH 280850Z 26003KT 9999 BKN022 OVC043 08/06 Q1038
EGPH 280820Z 25003KT 9999 BKN020 OVC044 07/05 Q1038
EGPH 280750Z VRB03KT 9999 BKN021 OVC039 07/05 Q1038
EGPH 280720Z 26003KT 9999 OVC027 07/05 Q1038
EGPH 280650Z 25004KT 9999 SCT018 OVC033 07/05 Q1038
EGPH 280620Z 26003KT 9999 BKN020 OVC035 08/05 Q1038
EGPH 280550Z VRB02KT 9999 OVC025 07/05 Q1038
EGPH 280450Z 23002KT 9999 OVC028 07/05 Q1038
EGPH 280350Z 28001KT 9999 OVC028 08/05 Q1038
EGPH 280320Z VRB01KT 9999 OVC026 08/05 Q1038
EGPH 280250Z VRB03KT 9999 OVC027 08/05 Q1038
EGPH 280220Z 15005KT 9999 OVC025 08/05 Q1038
EGPH 280150Z 16005KT 9999 OVC023 08/06 Q1039
EGPH 280120Z 23003KT 9999 OVC022 08/06 Q1039
EGPH 280050Z 24004KT 9999 OVC022 08/06 Q1039
EGPH 280020Z 22004KT 9999 OVC023 08/06 Q1039
EGPH 272350Z 23005KT 9999 OVC023 08/06 Q1039
EGPH 272320Z 24004KT 9999 OVC023 08/06 Q1039
EGPH 272250Z 23004KT 9999 OVC025 08/06 Q1039
EGPH 272220Z 24003KT 9999 OVC025 08/06 Q1040
EGPH 272150Z 22003KT 9999 FEW016 OVC027 08/06 Q1040
EGPH 272120Z 24003KT 9999 FEW016 OVC029 08/06 Q1040
EGPH 272050Z 24004KT 9999 SCT015 OVC029 08/06 Q1040
EGPH 272020Z 24005KT 9999 FEW017 OVC025 09/06 Q1040
EGPH 271950Z 22004KT 9999 OVC025 09/06 Q1039
EGPH 271920Z 25004KT 9999 OVC028 09/06 Q1039
EGPH 271850Z 25004KT 9999 OVC026 09/06 Q1039
EGPH 271820Z 26004KT 240V320 9999 BKN024 10/07 Q1039
EGPH 271750Z 27004KT 230V300 9999 OVC023 10/07 Q1039
EGPH 271720Z 30004KT 270V350 9999 OVC023 10/07 Q1039
EGPH 271650Z 33004KT 290V360 9999 OVC018 10/07 Q1039
EGPH 271620Z 30005KT 270V330 9999 BKN020 11/07 Q1039
EGPH 271550Z 28007KT 9999 BKN019 11/07 Q1039
EGPH 271520Z 26006KT 240V310 9999 SCT017 11/07 Q1039
EGPH 271450Z 25007KT 9999 BKN017 11/07 Q1039
EGPH 271420Z 25009KT 9999 SCT020 13/08 Q1039